KARA/ARA METAR and TAF weather

Enter ICAO airport designator
Station Type Date Time Source
KARA METAR 2019/12/13 00:53 UTC NOAA

KARA 130053Z 00000KT 10SM BKN039 BKN048 15/12 A3015 RMK AO2 SLP210 T01500117


Station Type Date Time Source
KARA Decoded METAR 2019/12/13 00:53 UTC NOAA

NEW IBERIA ACADIANA REGIONAL, LA, United States (KARA) 30-02N 091-53W 18M
Dec 12, 2019 - 07:53 PM EST / 2019.12.13 0053 UTC
Wind: Calm:0
Visibility: 10 mile(s):0
Sky conditions: mostly cloudy
Temperature: 59.0 F (15.0 C)
Dew Point: 53.1 F (11.7 C)
Relative Humidity: 80%
Pressure (altimeter): 30.15 in. Hg (1020 hPa)
ob: KARA 130053Z 00000KT 10SM BKN039 BKN048 15/12 A3015 RMK AO2 SLP210 T01500117
cycle: 1

Station Type Date Time Source
KARA TAF 2019/12/12 18:30 UTC NOAA

TAF KARA 121724Z 1218/1318 10007KT P6SM SCT250
FM122200 03004KT P6SM BKN100
FM130900 03005KT 6SM BR BKN035
FM131500 01003KT P6SM BKN025

Example: see airport list